Time;durP1;ratioP1;P1;durP2;ratioP2;P2;SDS_P1;SDS_P2;PMS_P1;PMS_P2;Temp;Humidity;BMP_temperature;BMP_pressure;BME280_temperature;BME280_humidity;BME280_pressure;Samples;Min_cycle;Max_cycle;Signal;HPM_P1;HPM_P2
2023/09/19 00:00:47;;;;;;;87.82;52.47;;;28.10;99.90;;;;;;5052484;28;20057;-69
2023/09/19 00:03:13;;;;;;;78.80;50.92;;;28.20;99.90;;;;;;5045268;28;20033;-69
2023/09/19 00:05:44;;;;;;;83.47;52.60;;;28.20;99.90;;;;;;5042734;28;20025;-70
2023/09/19 00:08:13;;;;;;;87.45;53.88;;;28.20;99.90;;;;;;5048969;28;20323;-70
2023/09/19 00:10:41;;;;;;;95.72;57.25;;;28.30;99.90;;;;;;5046749;28;20049;-70
2023/09/19 00:13:12;;;;;;;328.55;257.83;;;28.30;99.90;;;;;;5036465;28;20104;-70
2023/09/19 00:15:48;;;;;;;233.55;160.50;;;28.40;99.90;;;;;;5036420;28;20100;-70
2023/09/19 00:18:18;;;;;;;406.98;330.70;;;28.40;99.90;;;;;;5036323;28;20021;-68
2023/09/19 00:20:54;;;;;;;366.60;299.83;;;28.50;99.90;;;;;;5036081;28;20038;-68
2023/09/19 00:23:20;;;;;;;393.13;315.38;;;28.60;99.90;;;;;;5036212;28;20484;-69
2023/09/19 00:25:47;;;;;;;203.70;157.93;;;28.60;99.90;;;;;;5036206;28;20109;-69
2023/09/19 00:28:14;;;;;;;219.40;181.57;;;28.60;99.90;;;;;;5036111;28;20033;-69
2023/09/19 00:30:43;;;;;;;164.70;116.63;;;28.70;99.90;;;;;;5035994;28;20033;-69
2023/09/19 00:33:11;;;;;;;127.88;80.50;;;28.70;99.90;;;;;;5036023;28;20029;-68
2023/09/19 00:35:38;;;;;;;132.13;90.95;;;28.80;99.90;;;;;;5036911;28;20082;-68
2023/09/19 00:38:06;;;;;;;135.60;78.50;;;28.80;99.90;;;;;;5044788;28;20578;-69
2023/09/19 00:40:33;;;;;;;155.15;91.00;;;28.90;99.90;;;;;;5046658;28;20078;-68
2023/09/19 00:43:01;;;;;;;117.70;75.07;;;28.90;99.90;;;;;;5044823;28;20598;-68
2023/09/19 00:45:28;;;;;;;115.32;73.55;;;28.90;99.90;;;;;;5047226;28;20037;-68
2023/09/19 00:47:55;;;;;;;120.93;74.60;;;29.00;99.90;;;;;;5047069;28;20017;-68
2023/09/19 00:50:25;;;;;;;124.40;73.93;;;29.00;99.90;;;;;;5045629;28;20063;-69
2023/09/19 00:52:57;;;;;;;134.43;77.63;;;29.00;99.90;;;;;;5044857;28;20032;-69
2023/09/19 00:55:25;;;;;;;134.75;81.75;;;29.10;99.90;;;;;;5041427;28;20030;-68
2023/09/19 00:57:53;;;;;;;140.02;82.03;;;29.20;99.90;;;;;;5049912;28;20029;-68
2023/09/19 01:00:20;;;;;;;146.13;87.30;;;29.30;99.90;;;;;;5049555;28;20168;-68
2023/09/19 01:02:47;;;;;;;155.07;90.85;;;29.30;99.90;;;;;;5038561;28;20076;-68
2023/09/19 01:05:14;;;;;;;175.48;103.55;;;29.30;99.90;;;;;;5040445;28;20067;-68
2023/09/19 01:07:40;;;;;;;193.48;114.32;;;29.40;99.90;;;;;;5041229;28;20017;-68
2023/09/19 01:10:11;;;;;;;192.25;108.55;;;29.40;99.90;;;;;;5037985;28;20052;-68
2023/09/19 01:12:47;;;;;;;188.00;107.07;;;29.50;99.90;;;;;;5049674;28;20021;-68
2023/09/19 01:15:33;;;;;;;194.82;113.47;;;29.50;99.90;;;;;;5055209;28;20507;-68
2023/09/19 01:18:06;;;;;;;186.85;104.82;;;29.60;99.90;;;;;;5053908;28;20033;-68
2023/09/19 01:20:53;;;;;;;188.18;111.03;;;29.70;99.90;;;;;;5054975;28;20026;-68
2023/09/19 01:35:03;;;;;;;76.65;47.47;;;29.70;99.90;;;;;;5131277;27;20458;-68
2023/09/19 01:37:31;;;;;;;93.82;49.08;;;30.60;99.90;;;;;;5131603;28;20102;-68
2023/09/19 01:42:43;;;;;;;86.85;51.05;;;30.60;99.90;;;;;;5131143;28;20139;-66
2023/09/19 01:45:27;;;;;;;92.70;54.10;;;30.60;99.90;;;;;;5131384;27;20477;-67
2023/09/19 01:47:56;;;;;;;99.85;54.88;;;30.50;99.90;;;;;;5131265;27;20490;-66
2023/09/19 01:50:42;;;;;;;91.13;49.88;;;30.50;99.90;;;;;;5131255;27;20023;-66
2023/09/19 01:53:35;;;;;;;92.80;48.10;;;30.60;99.90;;;;;;5130450;27;20114;-66
2023/09/19 01:56:05;;;;;;;82.97;50.92;;;30.50;99.90;;;;;;5128598;28;20381;-66
2023/09/19 01:58:36;;;;;;;85.97;51.70;;;30.50;99.90;;;;;;5130632;28;20042;-68
2023/09/19 02:01:05;;;;;;;89.40;52.85;;;30.60;99.90;;;;;;5130704;28;20388;-67
2023/09/19 02:03:33;;;;;;;113.78;66.50;;;30.60;99.90;;;;;;5130917;28;20039;-68
2023/09/19 02:06:00;;;;;;;107.53;62.03;;;30.60;99.90;;;;;;5127793;28;20024;-68
2023/09/19 02:08:27;;;;;;;81.00;49.10;;;30.70;99.90;;;;;;5125343;28;20016;-67
2023/09/19 02:10:54;;;;;;;76.35;47.72;;;30.70;99.90;;;;;;5130453;28;20019;-68
2023/09/19 02:13:23;;;;;;;82.80;50.10;;;30.70;99.90;;;;;;5129968;27;20072;-68
2023/09/19 02:15:50;;;;;;;76.50;49.83;;;30.70;99.90;;;;;;5130252;28;20027;-68
2023/09/19 02:18:17;;;;;;;86.80;54.72;;;30.70;99.90;;;;;;5130324;28;20392;-69
2023/09/19 02:20:43;;;;;;;89.07;54.85;;;30.70;99.90;;;;;;5130393;27;20023;-69
2023/09/19 02:23:12;;;;;;;88.45;53.42;;;30.80;99.90;;;;;;5129444;28;20019;-67
2023/09/19 02:25:40;;;;;;;82.20;52.65;;;30.80;99.90;;;;;;5119992;28;20023;-69
2023/09/19 02:28:09;;;;;;;98.60;56.33;;;30.70;99.90;;;;;;5118709;27;20028;-68
2023/09/19 02:30:36;;;;;;;100.35;60.70;;;30.80;99.90;;;;;;5119823;27;20019;-70
2023/09/19 02:33:05;;;;;;;90.75;57.35;;;30.80;99.90;;;;;;5120135;28;20291;-68
2023/09/19 02:35:35;;;;;;;95.03;59.25;;;30.80;99.90;;;;;;5108800;28;20424;-69
2023/09/19 02:38:03;;;;;;;91.50;53.38;;;31.00;99.90;;;;;;5114347;27;20404;-69
2023/09/19 02:40:29;;;;;;;96.70;57.38;;;30.90;99.90;;;;;;5114498;27;20023;-68
2023/09/19 02:42:59;;;;;;;90.03;57.13;;;30.90;99.90;;;;;;5114264;28;20024;-68
2023/09/19 02:45:25;;;;;;;101.30;61.55;;;30.90;99.90;;;;;;5109679;28;20137;-69
2023/09/19 02:47:52;;;;;;;107.85;63.13;;;31.00;99.90;;;;;;5104923;28;20018;-68
2023/09/19 02:50:18;;;;;;;109.00;67.13;;;31.10;99.90;;;;;;5097766;28;20024;-68
2023/09/19 02:52:49;;;;;;;106.63;67.20;;;31.10;99.90;;;;;;5100769;28;20016;-73
2023/09/19 02:55:19;;;;;;;115.80;71.72;;;31.10;99.90;;;;;;5098498;28;20145;-70
2023/09/19 02:57:49;;;;;;;115.78;71.10;;;31.20;99.90;;;;;;5095716;28;20024;-67
2023/09/19 03:00:21;;;;;;;118.72;74.43;;;31.20;99.90;;;;;;5111491;28;20059;-67
2023/09/19 03:02:57;;;;;;;109.85;70.10;;;31.20;99.90;;;;;;5095574;28;20028;-67
2023/09/19 03:05:24;;;;;;;103.95;70.57;;;31.20;99.90;;;;;;5095882;28;20466;-67
2023/09/19 03:07:51;;;;;;;106.35;67.32;;;31.20;99.90;;;;;;5095494;28;20466;-67
2023/09/19 03:10:19;;;;;;;103.53;67.63;;;31.30;99.90;;;;;;5095577;28;20390;-67
2023/09/19 03:12:46;;;;;;;107.82;65.15;;;31.30;99.90;;;;;;5101812;28;20051;-67
2023/09/19 03:15:15;;;;;;;108.10;68.93;;;31.30;99.90;;;;;;5104139;28;20019;-66
2023/09/19 03:17:45;;;;;;;104.32;65.70;;;31.40;99.90;;;;;;5101281;28;20040;-66
2023/09/19 03:20:13;;;;;;;103.43;64.47;;;31.40;99.90;;;;;;5111409;28;20469;-67
2023/09/19 03:22:40;;;;;;;121.90;75.28;;;31.40;99.90;;;;;;5105320;28;20024;-66
2023/09/19 03:25:08;;;;;;;122.93;75.60;;;31.40;99.90;;;;;;5103869;28;20024;-67
2023/09/19 03:27:35;;;;;;;114.28;71.32;;;31.40;99.90;;;;;;5103060;28;20140;-67
2023/09/19 03:30:06;;;;;;;122.68;79.50;;;31.50;99.90;;;;;;5103304;28;20054;-67
2023/09/19 03:32:34;;;;;;;117.03;74.78;;;31.50;99.90;;;;;;5109570;28;20035;-66
2023/09/19 03:35:00;;;;;;;127.70;78.45;;;31.50;99.90;;;;;;5109362;28;20036;-67
2023/09/19 03:37:27;;;;;;;120.90;80.90;;;31.50;99.90;;;;;;5098252;28;20077;-68
2023/09/19 03:39:54;;;;;;;129.30;79.22;;;31.50;99.90;;;;;;5109035;28;20019;-66
2023/09/19 03:42:25;;;;;;;114.38;74.65;;;31.60;99.90;;;;;;5095537;27;20500;-65
2023/09/19 03:44:52;;;;;;;131.65;78.95;;;31.70;99.90;;;;;;5097336;28;20059;-66
2023/09/19 03:47:19;;;;;;;129.50;84.80;;;31.90;99.90;;;;;;5102965;27;20020;-65
2023/09/19 03:49:45;;;;;;;144.02;92.43;;;31.90;99.90;;;;;;5106686;28;20453;-67
2023/09/19 03:52:12;;;;;;;145.02;90.45;;;31.80;99.90;;;;;;5115789;28;20035;-65
2023/09/19 03:54:41;;;;;;;120.07;80.15;;;31.90;99.90;;;;;;5106827;28;20027;-66
2023/09/19 03:57:08;;;;;;;126.53;81.20;;;32.00;99.90;;;;;;5103658;28;20358;-66
2023/09/19 03:59:35;;;;;;;126.38;82.50;;;32.10;99.90;;;;;;5097566;28;20059;-67
2023/09/19 04:02:02;;;;;;;133.40;85.47;;;32.00;99.90;;;;;;5094656;28;20030;-66
2023/09/19 04:04:29;;;;;;;126.30;79.88;;;31.90;99.90;;;;;;5094139;28;20491;-66
2023/09/19 04:06:56;;;;;;;124.95;77.95;;;31.90;99.90;;;;;;5099874;28;20021;-66
2023/09/19 04:09:22;;;;;;;117.68;74.00;;;32.00;99.90;;;;;;5099929;28;20477;-66
2023/09/19 04:11:49;;;;;;;109.50;72.13;;;32.20;99.90;;;;;;5104658;28;20184;-67
2023/09/19 04:14:16;;;;;;;121.97;76.80;;;32.30;99.90;;;;;;5105460;28;20019;-67
2023/09/19 04:16:43;;;;;;;122.22;78.95;;;32.50;99.90;;;;;;5103734;28;20031;-67
2023/09/19 04:19:09;;;;;;;111.68;73.85;;;32.60;99.90;;;;;;5104450;28;20058;-66
2023/09/19 04:21:36;;;;;;;100.22;67.22;;;32.80;99.90;;;;;;5104691;28;20450;-70
2023/09/19 04:24:02;;;;;;;105.75;65.50;;;32.80;99.90;;;;;;5104082;28;20027;-67
2023/09/19 04:26:29;;;;;;;95.88;63.25;;;32.80;99.90;;;;;;5103485;28;20016;-68
2023/09/19 04:28:56;;;;;;;106.78;62.10;;;32.70;99.90;;;;;;5103752;28;20084;-69
2023/09/19 04:31:22;;;;;;;82.18;49.95;;;32.60;99.90;;;;;;5104582;28;20470;-68
2023/09/19 04:33:49;;;;;;;67.00;46.08;;;32.70;99.90;;;;;;5107213;28;20101;-69
2023/09/19 04:36:15;;;;;;;70.07;47.28;;;32.70;99.90;;;;;;5103426;28;20024;-69
2023/09/19 04:38:42;;;;;;;92.40;60.25;;;32.80;99.90;;;;;;5103130;28;20020;-70
2023/09/19 04:41:09;;;;;;;100.85;64.30;;;32.80;99.90;;;;;;5104085;28;20357;-67
2023/09/19 04:43:35;;;;;;;97.25;64.47;;;32.80;99.90;;;;;;5102533;28;21050;-69
2023/09/19 04:46:03;;;;;;;100.28;61.67;;;32.80;99.90;;;;;;5102826;28;20039;-68
2023/09/19 04:48:29;;;;;;;80.50;49.22;;;32.80;99.90;;;;;;5103944;28;20020;-68
2023/09/19 04:50:56;;;;;;;107.38;59.67;;;32.80;99.90;;;;;;5096871;28;20012;-67
2023/09/19 04:53:23;;;;;;;72.82;45.42;;;32.80;99.90;;;;;;5094139;28;20452;-66
2023/09/19 04:55:55;;;;;;;86.38;49.45;;;32.80;99.90;;;;;;5097848;28;20028;-68
2023/09/19 04:58:22;;;;;;;71.13;44.63;;;32.80;99.90;;;;;;5102393;28;20087;-67
2023/09/19 05:00:51;;;;;;;66.40;42.28;;;32.90;99.90;;;;;;5101160;28;20053;-67
2023/09/19 05:03:19;;;;;;;56.80;36.35;;;33.00;99.90;;;;;;5102901;28;20020;-67
2023/09/19 05:05:46;;;;;;;51.22;32.95;;;33.00;99.90;;;;;;5102719;28;20039;-66
2023/09/19 05:08:14;;;;;;;48.72;33.28;;;32.90;99.90;;;;;;5104400;28;20019;-66
2023/09/19 05:10:41;;;;;;;57.40;34.88;;;32.90;99.90;;;;;;5101982;28;20020;-67
2023/09/19 05:13:07;;;;;;;53.58;37.75;;;32.90;99.90;;;;;;5104339;28;20466;-67
2023/09/19 05:15:35;;;;;;;54.53;41.03;;;32.90;99.90;;;;;;5101791;28;20020;-66
2023/09/19 05:18:03;;;;;;;53.15;39.70;;;32.90;99.90;;;;;;5103065;28;20054;-68
2023/09/19 05:20:30;;;;;;;55.60;38.03;;;33.00;99.90;;;;;;5104509;28;20024;-69
2023/09/19 05:23:01;;;;;;;52.35;36.78;;;33.10;99.90;;;;;;5104674;28;20031;-68
2023/09/19 05:25:29;;;;;;;46.20;35.22;;;33.20;99.90;;;;;;5104715;28;20024;-68
2023/09/19 05:27:58;;;;;;;48.30;36.63;;;33.20;99.90;;;;;;5102320;28;20531;-68
2023/09/19 05:30:29;;;;;;;60.20;40.25;;;33.20;99.90;;;;;;5106463;28;20028;-65
2023/09/19 05:32:56;;;;;;;64.20;40.45;;;33.20;99.90;;;;;;5097958;28;20401;-67
2023/09/19 05:35:23;;;;;;;57.70;41.63;;;33.20;99.90;;;;;;5097105;28;20036;-67
2023/09/19 05:37:52;;;;;;;64.75;44.08;;;33.20;99.90;;;;;;5107362;28;20020;-70
2023/09/19 05:40:19;;;;;;;64.85;42.95;;;33.20;99.90;;;;;;5113932;28;20076;-67
2023/09/19 05:42:47;;;;;;;62.13;39.92;;;33.30;99.90;;;;;;5106152;28;20024;-67
2023/09/19 05:45:14;;;;;;;52.83;37.90;;;33.40;99.90;;;;;;5102452;28;20020;-70
2023/09/19 05:47:42;;;;;;;57.83;39.08;;;33.30;99.90;;;;;;5106911;28;20024;-68
2023/09/19 05:50:10;;;;;;;62.65;39.63;;;33.30;99.90;;;;;;5106088;28;20047;-69
2023/09/19 05:52:38;;;;;;;54.88;37.22;;;33.50;99.90;;;;;;5104115;28;20032;-68
2023/09/19 05:55:08;;;;;;;58.70;40.58;;;33.70;99.90;;;;;;5105252;28;20020;-68
2023/09/19 05:57:35;;;;;;;67.88;42.80;;;33.70;99.90;;;;;;5103406;28;20031;-69
2023/09/19 06:00:03;;;;;;;50.50;37.70;;;33.80;99.90;;;;;;5103736;28;20354;-71
2023/09/19 06:02:33;;;;;;;54.88;38.65;;;33.90;99.90;;;;;;5103929;28;20020;-68
2023/09/19 06:04:59;;;;;;;48.97;36.60;;;33.90;99.90;;;;;;5101553;28;20409;-67
2023/09/19 06:07:27;;;;;;;44.38;34.30;;;33.90;99.90;;;;;;5103285;28;20474;-66
2023/09/19 06:09:54;;;;;;;50.13;36.63;;;34.00;99.90;;;;;;5103182;28;20090;-67
2023/09/19 06:12:21;;;;;;;43.72;31.02;;;34.00;99.90;;;;;;5101900;28;20027;-69
2023/09/19 06:14:49;;;;;;;53.15;34.97;;;34.10;99.90;;;;;;5108849;28;20019;-68
2023/09/19 06:17:15;;;;;;;49.90;35.90;;;34.00;99.90;;;;;;5098190;28;20019;-68
2023/09/19 06:19:46;;;;;;;44.75;33.22;;;34.00;99.90;;;;;;5099833;28;20019;-71
2023/09/19 06:22:18;;;;;;;65.53;39.25;;;34.00;99.90;;;;;;5106398;28;20024;-68
2023/09/19 06:24:46;;;;;;;48.78;32.47;;;34.10;99.90;;;;;;5107878;28;20023;-68
2023/09/19 06:27:13;;;;;;;37.20;25.77;;;33.90;99.90;;;;;;5106217;28;20057;-70
2023/09/19 06:29:41;;;;;;;35.83;24.45;;;33.90;99.90;;;;;;5106592;27;20008;-66
2023/09/19 06:32:10;;;;;;;25.92;17.90;;;33.90;99.90;;;;;;5107772;28;20062;-68
2023/09/19 06:34:38;;;;;;;45.42;28.48;;;33.90;99.90;;;;;;5110627;28;20067;-68
2023/09/19 06:37:08;;;;;;;39.80;28.50;;;33.80;99.90;;;;;;5104195;28;20095;-68
2023/09/19 06:39:34;;;;;;;33.90;24.85;;;33.80;99.90;;;;;;5105329;28;20054;-67
2023/09/19 06:42:01;;;;;;;39.35;25.77;;;33.70;99.90;;;;;;5106027;28;20012;-68
2023/09/19 06:44:29;;;;;;;39.00;27.58;;;33.70;99.90;;;;;;5106960;28;20435;-69
2023/09/19 06:46:56;;;;;;;50.03;32.78;;;33.60;99.90;;;;;;5103892;28;20043;-67
2023/09/19 06:49:23;;;;;;;47.97;34.35;;;33.70;99.90;;;;;;5103930;28;20020;-67
2023/09/19 06:51:49;;;;;;;43.78;31.90;;;33.70;99.90;;;;;;5105628;28;20012;-66
2023/09/19 06:54:17;;;;;;;46.97;33.65;;;33.70;99.90;;;;;;5103769;28;20016;-67
2023/09/19 06:56:44;;;;;;;46.60;34.05;;;33.80;99.90;;;;;;5103737;28;20158;-69
2023/09/19 06:59:14;;;;;;;42.33;29.58;;;33.80;99.90;;;;;;5107188;28;20487;-68
2023/09/19 07:01:41;;;;;;;30.63;23.88;;;33.90;99.90;;;;;;5103344;28;20161;-68
2023/09/19 07:04:08;;;;;;;30.52;22.25;;;33.90;99.90;;;;;;5106711;28;20172;-67
2023/09/19 07:06:35;;;;;;;40.53;29.50;;;33.90;99.90;;;;;;5106648;28;20023;-69
2023/09/19 07:09:02;;;;;;;60.40;39.67;;;33.90;99.90;;;;;;5103882;28;20016;-69
2023/09/19 07:11:30;;;;;;;58.03;40.58;;;33.90;99.90;;;;;;5106589;28;20435;-67
2023/09/19 07:13:58;;;;;;;72.05;48.75;;;34.00;99.90;;;;;;5104917;28;20024;-67
2023/09/19 07:18:59;;;;;;;76.88;49.83;;;34.20;99.90;;;;;;5106097;28;20020;-68
2023/09/19 07:21:26;;;;;;;82.03;54.10;;;34.30;99.90;;;;;;5105172;28;20020;-69
2023/09/19 07:23:53;;;;;;;88.35;56.78;;;34.30;99.90;;;;;;5106540;28;20023;-68
2023/09/19 07:26:19;;;;;;;83.28;57.97;;;34.30;99.90;;;;;;5104537;28;20448;-68
2023/09/19 07:28:46;;;;;;;85.65;60.30;;;34.30;99.90;;;;;;5104973;28;20015;-68
2023/09/19 07:31:13;;;;;;;84.70;56.60;;;34.20;99.90;;;;;;5106180;28;20015;-68
2023/09/19 07:33:41;;;;;;;76.97;53.60;;;34.10;99.90;;;;;;5105131;28;20431;-67
2023/09/19 07:36:11;;;;;;;82.53;55.03;;;34.00;99.90;;;;;;5105586;28;20435;-67
2023/09/19 07:38:37;;;;;;;102.90;61.92;;;34.00;99.90;;;;;;5103856;28;20539;-67
2023/09/19 07:41:05;;;;;;;78.55;55.03;;;34.00;99.90;;;;;;5104320;28;20029;-66
2023/09/19 07:43:31;;;;;;;83.65;56.80;;;34.00;99.90;;;;;;5106459;28;20044;-67
2023/09/19 07:46:02;;;;;;;81.57;59.28;;;34.20;99.90;;;;;;5104774;28;20087;-68
2023/09/19 07:48:29;;;;;;;106.23;75.83;;;34.20;99.90;;;;;;5104436;28;20024;-69
2023/09/19 07:50:55;;;;;;;125.88;87.07;;;34.20;99.90;;;;;;5106392;28;20091;-67
2023/09/19 07:53:22;;;;;;;104.53;74.28;;;34.20;99.90;;;;;;5105292;28;20020;-68
2023/09/19 07:55:48;;;;;;;89.10;62.20;;;34.20;99.90;;;;;;5103829;28;21114;-68
2023/09/19 07:58:15;;;;;;;89.47;61.35;;;34.10;99.90;;;;;;5104523;28;20031;-69
2023/09/19 08:00:42;;;;;;;93.22;64.45;;;34.00;99.90;;;;;;5105299;28;20099;-68
2023/09/19 08:03:14;;;;;;;88.25;61.95;;;33.90;99.90;;;;;;5106529;28;20027;-68
2023/09/19 08:05:43;;;;;;;95.10;66.40;;;33.90;99.90;;;;;;5104998;28;20470;-68
2023/09/19 08:08:10;;;;;;;85.70;59.42;;;33.90;99.90;;;;;;5106223;28;20107;-67
2023/09/19 08:10:39;;;;;;;103.95;69.78;;;33.90;99.90;;;;;;5105686;28;20016;-67
2023/09/19 08:13:11;;;;;;;112.32;71.72;;;33.80;99.90;;;;;;5094992;28;20032;-67
2023/09/19 08:15:46;;;;;;;100.03;65.57;;;33.80;99.90;;;;;;5098820;28;20040;-67
2023/09/19 08:18:12;;;;;;;92.85;65.93;;;33.80;99.90;;;;;;5102771;28;20028;-67
2023/09/19 08:20:42;;;;;;;99.05;65.03;;;33.80;99.90;;;;;;5104719;28;20416;-68
2023/09/19 08:23:09;;;;;;;96.32;68.70;;;33.80;99.90;;;;;;5094324;28;20032;-67
2023/09/19 08:25:35;;;;;;;112.60;73.00;;;33.80;99.90;;;;;;5094470;28;20024;-69
2023/09/19 08:28:08;;;;;;;110.43;74.28;;;33.70;99.90;;;;;;5150627;22;20055;-67
2023/09/19 08:30:34;;;;;;;106.65;72.05;;;33.70;99.90;;;;;;5114247;28;20032;-68
2023/09/19 08:33:04;;;;;;;120.20;79.82;;;33.70;99.90;;;;;;5113939;28;20416;-68
2023/09/19 08:35:31;;;;;;;98.68;69.00;;;33.80;99.90;;;;;;5114515;28;20028;-67
2023/09/19 08:37:57;;;;;;;119.97;73.32;;;33.80;99.90;;;;;;5114128;28;20504;-67
2023/09/19 08:40:24;;;;;;;101.90;64.72;;;33.80;99.90;;;;;;5114587;28;20419;-66
2023/09/19 08:42:55;;;;;;;85.88;60.50;;;33.80;99.90;;;;;;5115019;28;20069;-66
2023/09/19 08:45:24;;;;;;;82.90;55.15;;;33.80;99.90;;;;;;5114285;28;20076;-64
2023/09/19 08:48:00;;;;;;;87.15;58.53;;;33.80;99.90;;;;;;5114165;28;20032;-64
2023/09/19 08:50:29;;;;;;;88.10;60.20;;;33.80;99.90;;;;;;5114444;28;20042;-65
2023/09/19 08:53:00;;;;;;;84.40;57.67;;;33.70;99.90;;;;;;5114307;28;20028;-65
2023/09/19 08:55:29;;;;;;;84.15;54.15;;;33.70;99.90;;;;;;5114459;28;20023;-65
2023/09/19 08:58:01;;;;;;;89.88;62.97;;;33.70;99.90;;;;;;5108964;28;20042;-64
2023/09/19 09:00:29;;;;;;;96.72;60.42;;;33.70;99.90;;;;;;5106061;28;20028;-65
2023/09/19 09:02:58;;;;;;;95.32;62.10;;;33.70;99.90;;;;;;5092370;28;20509;-64
2023/09/19 09:05:26;;;;;;;93.20;62.85;;;33.70;99.90;;;;;;5092949;28;20024;-65
2023/09/19 09:07:56;;;;;;;98.30;65.93;;;33.70;99.90;;;;;;5093342;28;20024;-67
2023/09/19 09:10:23;;;;;;;96.20;63.38;;;33.80;99.90;;;;;;5114769;28;20461;-64
2023/09/19 09:12:55;;;;;;;77.07;52.08;;;33.80;99.90;;;;;;5114254;28;20027;-66
2023/09/19 09:15:23;;;;;;;78.15;47.35;;;33.80;99.90;;;;;;5113728;28;20011;-63
2023/09/19 09:17:55;;;;;;;68.30;44.67;;;33.80;99.90;;;;;;5113419;28;20027;-65
2023/09/19 09:20:22;;;;;;;72.22;46.95;;;33.70;99.90;;;;;;5114131;28;20160;-64
2023/09/19 09:23:03;;;;;;;65.32;41.67;;;33.70;99.90;;;;;;5112474;28;20040;-64
2023/09/19 09:25:54;;;;;;;68.15;43.63;;;33.70;99.90;;;;;;5092504;28;20478;-64
2023/09/19 09:28:27;;;;;;;91.68;54.22;;;33.70;99.90;;;;;;5053246;28;20056;-69
2023/09/19 09:30:55;;;;;;;86.90;55.83;;;33.70;99.90;;;;;;5053009;28;20031;-63
2023/09/19 09:33:22;;;;;;;85.00;55.58;;;33.70;99.90;;;;;;5050245;28;20120;-62
2023/09/19 09:35:59;;;;;;;113.78;70.13;;;33.70;99.90;;;;;;5051578;28;20023;-64
2023/09/19 09:38:28;;;;;;;127.32;78.78;;;33.70;99.90;;;;;;5051667;28;20027;-64
2023/09/19 09:41:06;;;;;;;130.65;78.95;;;33.70;99.90;;;;;;5054023;28;20029;-64
2023/09/19 09:43:39;;;;;;;129.35;79.78;;;33.70;99.90;;;;;;5046232;28;20025;-63
2023/09/19 09:46:16;;;;;;;122.65;73.57;;;33.70;99.90;;;;;;5052897;28;20017;-62
2023/09/19 09:48:51;;;;;;;114.25;70.80;;;33.60;99.90;;;;;;5055931;28;20013;-65
2023/09/19 09:51:31;;;;;;;104.38;63.58;;;33.70;99.90;;;;;;5054138;28;20028;-69
2023/09/19 09:54:12;;;;;;;104.13;62.88;;;33.60;99.90;;;;;;5054524;28;20033;-69
2023/09/19 09:56:59;;;;;;;98.72;62.40;;;33.60;99.90;;;;;;5052200;28;20025;-69
2023/09/19 09:59:59;;;;;;;106.82;59.75;;;33.60;99.90;;;;;;5052469;28;20040;-68
2023/09/19 10:02:32;;;;;;;144.95;87.80;;;33.60;99.90;;;;;;5055259;28;20036;-68
2023/09/19 10:05:14;;;;;;;154.75;99.03;;;33.60;99.90;;;;;;5046944;28;20025;-68
2023/09/19 10:07:49;;;;;;;107.13;67.25;;;33.60;99.90;;;;;;5046449;28;20040;-69
2023/09/19 10:10:29;;;;;;;91.97;55.40;;;33.60;99.90;;;;;;5054448;28;20048;-68
2023/09/19 10:13:02;;;;;;;99.68;63.20;;;33.50;99.80;;;;;;5052975;28;20623;-68
2023/09/19 10:15:32;;;;;;;148.48;98.22;;;33.50;99.90;;;;;;5056785;28;20465;-68
2023/09/19 10:18:01;;;;;;;141.20;89.40;;;33.50;99.90;;;;;;5056408;28;20032;-68
2023/09/19 10:22:59;;;;;;;231.65;153.45;;;33.50;99.90;;;;;;5050574;28;20132;-69
2023/09/19 10:25:30;;;;;;;125.53;80.90;;;33.50;99.90;;;;;;5056176;28;20017;-68
2023/09/19 10:28:02;;;;;;;128.68;82.88;;;33.50;99.90;;;;;;5089629;28;20044;-68
2023/09/19 10:30:31;;;;;;;141.05;79.38;;;33.40;99.90;;;;;;5090051;28;20028;-69
2023/09/19 10:33:02;;;;;;;110.20;65.68;;;33.40;99.90;;;;;;5094067;28;20032;-70
2023/09/19 10:35:29;;;;;;;92.70;55.65;;;33.40;99.90;;;;;;5094169;28;20482;-69
2023/09/19 10:38:00;;;;;;;100.13;63.17;;;33.30;99.90;;;;;;5096188;28;20031;-69
2023/09/19 10:40:30;;;;;;;97.53;56.78;;;33.30;99.90;;;;;;5096167;28;20024;-67
2023/09/19 10:43:05;;;;;;;60.70;38.92;;;33.30;99.90;;;;;;5069948;28;20038;-68
2023/09/19 10:45:34;;;;;;;60.08;38.85;;;33.20;99.90;;;;;;5092799;28;20093;-69
2023/09/19 10:48:03;;;;;;;68.57;38.55;;;33.20;99.90;;;;;;5091568;28;20097;-68
2023/09/19 10:50:37;;;;;;;68.20;41.85;;;33.20;99.90;;;;;;5091219;28;20013;-66
2023/09/19 10:53:08;;;;;;;68.10;45.45;;;33.20;99.90;;;;;;5092570;28;20028;-69
2023/09/19 10:55:36;;;;;;;69.67;43.70;;;33.20;99.90;;;;;;5091441;28;20032;-68
2023/09/19 10:58:14;;;;;;;64.85;44.72;;;33.20;99.90;;;;;;5095796;28;20028;-67
2023/09/19 11:01:06;;;;;;;74.63;44.50;;;33.20;99.90;;;;;;5090269;28;20408;-67
2023/09/19 11:03:33;;;;;;;77.82;45.72;;;33.20;99.90;;;;;;5077279;28;20032;-68
2023/09/19 11:06:14;;;;;;;80.75;51.13;;;33.10;99.90;;;;;;5070600;28;20394;-69
2023/09/19 11:11:52;;;;;;;82.63;52.13;;;33.10;99.90;;;;;;5089227;28;20378;-66
2023/09/19 11:14:24;;;;;;;87.90;52.22;;;33.00;99.90;;;;;;5084072;28;20032;-65
2023/09/19 11:17:15;;;;;;;71.22;48.72;;;33.00;99.90;;;;;;5091876;28;20077;-65
2023/09/19 11:20:23;;;;;;;90.65;51.38;;;32.90;99.90;;;;;;5095124;28;20016;-65
2023/09/19 11:22:50;;;;;;;71.18;47.45;;;32.90;99.90;;;;;;5087955;28;20040;-65
2023/09/19 11:25:41;;;;;;;87.53;54.35;;;32.80;99.90;;;;;;5093165;28;20024;-64
2023/09/19 11:28:11;;;;;;;87.93;51.65;;;32.80;99.90;;;;;;5092649;28;20573;-64
2023/09/19 11:30:40;;;;;;;96.57;56.05;;;32.70;99.90;;;;;;5094612;28;20043;-67
2023/09/19 11:33:20;;;;;;;93.03;56.08;;;32.70;99.90;;;;;;5094707;28;20030;-66
2023/09/19 11:36:07;;;;;;;95.40;57.00;;;32.70;99.90;;;;;;5094328;28;20043;-69
2023/09/19 11:38:44;;;;;;;133.32;80.15;;;32.70;99.90;;;;;;5094221;28;20035;-68
2023/09/19 11:41:21;;;;;;;152.05;87.00;;;32.60;99.90;;;;;;5094644;28;20024;-69
2023/09/19 11:43:48;;;;;;;66.30;36.53;;;32.50;99.90;;;;;;5094995;28;20133;-69
2023/09/19 11:46:16;;;;;;;38.05;22.25;;;32.50;99.90;;;;;;5094971;28;20020;-69
2023/09/19 11:48:45;;;;;;;45.65;24.90;;;32.40;99.90;;;;;;5094953;28;20067;-69
2023/09/19 11:51:18;;;;;;;38.45;22.50;;;32.30;99.90;;;;;;5094831;28;20466;-68
2023/09/19 11:53:49;;;;;;;39.35;20.33;;;32.30;99.90;;;;;;5094743;28;20024;-69
2023/09/19 11:56:18;;;;;;;40.50;22.48;;;32.10;99.90;;;;;;5094783;28;20024;-68
2023/09/19 11:58:45;;;;;;;76.60;32.15;;;31.80;99.90;;;;;;5094852;28;20107;-70
2023/09/19 12:01:16;;;;;;;60.05;25.83;;;31.50;99.90;;;;;;5094408;28;20389;-70
2023/09/19 12:03:49;;;;;;;46.63;22.60;;;31.00;99.90;;;;;;5094427;28;20106;-66
2023/09/19 12:06:16;;;;;;;39.10;23.23;;;30.80;99.90;;;;;;5085605;28;20033;-65
2023/09/19 12:08:46;;;;;;;30.92;19.17;;;30.50;99.90;;;;;;5082196;28;20060;-66
2023/09/19 12:11:14;;;;;;;39.28;21.95;;;30.60;99.90;;;;;;5085547;28;20065;-67
2023/09/19 12:13:44;;;;;;;33.10;20.85;;;30.50;99.90;;;;;;5092314;28;20028;-66
2023/09/19 12:16:17;;;;;;;34.63;20.73;;;30.30;99.90;;;;;;5094411;28;20104;-66
2023/09/19 12:18:46;;;;;;;34.30;22.33;;;30.40;99.90;;;;;;5094310;28;20039;-63
2023/09/19 12:21:35;;;;;;;32.22;21.67;;;30.30;99.90;;;;;;5093667;28;20020;-63
2023/09/19 12:24:05;;;;;;;32.20;21.73;;;30.40;99.90;;;;;;5092883;28;20028;-66
2023/09/19 12:26:47;;;;;;;39.50;22.88;;;30.20;99.90;;;;;;5091285;28;20123;-66
2023/09/19 12:29:19;;;;;;;27.95;19.67;;;30.20;99.90;;;;;;5092227;28;20020;-66
2023/09/19 12:31:57;;;;;;;28.15;16.17;;;30.20;99.90;;;;;;5091435;28;20027;-66
2023/09/19 12:34:27;;;;;;;26.17;16.55;;;30.10;99.90;;;;;;5091132;28;20115;-66
2023/09/19 12:37:11;;;;;;;32.97;19.00;;;30.10;99.90;;;;;;5093097;28;20020;-65
2023/09/19 12:39:43;;;;;;;35.33;20.63;;;30.00;99.90;;;;;;5091796;28;20038;-65
2023/09/19 12:42:14;;;;;;;30.15;19.98;;;30.00;99.90;;;;;;5092233;28;20431;-65
2023/09/19 12:44:44;;;;;;;35.55;22.45;;;30.00;99.90;;;;;;5092872;28;20024;-65
2023/09/19 12:47:13;;;;;;;29.67;21.70;;;30.00;99.90;;;;;;5093345;28;20480;-65
2023/09/19 12:50:25;;;;;;;35.35;23.33;;;29.90;99.90;;;;;;5092864;28;20472;-65
2023/09/19 12:52:56;;;;;;;40.40;26.77;;;29.90;99.90;;;;;;5090455;28;20111;-64
2023/09/19 12:55:27;;;;;;;36.47;26.20;;;29.90;99.90;;;;;;5091137;28;20474;-65
2023/09/19 12:58:05;;;;;;;38.88;27.40;;;29.80;99.90;;;;;;5093675;28;20497;-66
2023/09/19 13:00:36;;;;;;;43.22;29.00;;;29.80;99.90;;;;;;5073299;28;20040;-67